Time;durP1;ratioP1;P1;durP2;ratioP2;P2;SDS_P1;SDS_P2;PMS_P1;PMS_P2;Temp;Humidity;BMP_temperature;BMP_pressure;BME280_temperature;BME280_humidity;BME280_pressure;Samples;Min_cycle;Max_cycle;Signal;HPM_P1;HPM_P2
2021/08/28 00:00:27;;;;;;;0.28;0.28;;;12.40;99.90;;;;;;4999568;28;20393;-76
2021/08/28 00:02:53;;;;;;;0.10;0.10;;;12.50;99.90;;;;;;5033852;28;20048;-76
2021/08/28 00:05:19;;;;;;;0.10;0.10;;;12.50;99.90;;;;;;5015994;28;20030;-76
2021/08/28 00:07:44;;;;;;;0.10;0.10;;;12.50;99.90;;;;;;5033917;28;20017;-76
2021/08/28 00:10:11;;;;;;;0.10;0.10;;;12.40;99.90;;;;;;5033594;28;20047;-76
2021/08/28 00:12:37;;;;;;;0.10;0.10;;;12.40;99.90;;;;;;5032420;28;20049;-76
2021/08/28 00:15:04;;;;;;;0.10;0.10;;;12.40;99.90;;;;;;5033236;28;20083;-76
2021/08/28 00:17:36;;;;;;;0.10;0.10;;;12.40;99.90;;;;;;5033659;28;20496;-76
2021/08/28 00:20:03;;;;;;;;;;;12.50;99.90;;;;;;5033985;28;20100;-76
2021/08/28 00:22:29;;;;;;;2.40;1.45;;;12.50;99.90;;;;;;4999607;28;19923;-76
2021/08/28 00:24:54;;;;;;;0.10;0.10;;;12.70;99.90;;;;;;5032286;28;20033;-75
2021/08/28 00:27:20;;;;;;;0.10;0.10;;;12.60;99.90;;;;;;5033367;28;20021;-76
2021/08/28 00:29:46;;;;;;;0.13;0.13;;;12.50;99.90;;;;;;5033206;28;20021;-76
2021/08/28 00:32:12;;;;;;;0.63;0.63;;;12.40;99.90;;;;;;5033101;28;20028;-76
2021/08/28 00:34:37;;;;;;;0.10;0.10;;;12.30;99.90;;;;;;5033146;28;20100;-76
2021/08/28 00:37:03;;;;;;;0.65;0.63;;;12.40;99.90;;;;;;5015281;28;20025;-76
2021/08/28 00:39:29;;;;;;;0.28;0.25;;;12.10;99.90;;;;;;5015380;28;20025;-75
2021/08/28 00:41:54;;;;;;;0.95;0.70;;;12.00;99.90;;;;;;5015085;28;20396;-75
2021/08/28 00:44:20;;;;;;;0.47;0.47;;;12.00;99.90;;;;;;5031466;28;20219;-75
2021/08/28 00:46:47;;;;;;;0.98;0.98;;;11.90;99.90;;;;;;5033014;28;20535;-75
2021/08/28 00:49:13;;;;;;;0.10;0.10;;;11.90;99.90;;;;;;5032697;28;20021;-75
2021/08/28 00:51:39;;;;;;;0.82;0.52;;;11.80;99.90;;;;;;5032854;28;20530;-74
2021/08/28 00:54:06;;;;;;;0.10;0.10;;;11.90;99.90;;;;;;5032766;28;20389;-76
2021/08/28 00:56:36;;;;;;;0.10;0.10;;;12.00;99.90;;;;;;5032667;28;20029;-75
2021/08/28 00:59:02;;;;;;;0.10;0.10;;;12.30;99.90;;;;;;5031289;28;20034;-75
2021/08/28 01:01:35;;;;;;;0.20;0.20;;;12.40;99.90;;;;;;5032479;28;20036;-75
2021/08/28 01:04:01;;;;;;;0.10;0.10;;;12.40;99.90;;;;;;5032699;28;20083;-75
2021/08/28 01:06:33;;;;;;;0.35;0.35;;;12.50;99.90;;;;;;5032364;28;20041;-75
2021/08/28 01:09:13;;;;;;;0.20;0.20;;;12.40;99.90;;;;;;5032476;28;20026;-76
2021/08/28 01:12:22;;;;;;;0.50;0.50;;;12.40;99.90;;;;;;5031053;28;20025;-75
2021/08/28 01:14:55;;;;;;;0.10;0.10;;;12.20;99.90;;;;;;5021664;28;20041;-76
2021/08/28 01:17:22;;;;;;;0.10;0.10;;;12.00;99.90;;;;;;5014660;28;20036;-76
2021/08/28 01:20:25;;;;;;;0.10;0.10;;;12.20;99.90;;;;;;5014545;28;20033;-76
2021/08/28 01:22:51;;;;;;;;;;;12.30;99.90;;;;;;5022032;28;20044;-76
2021/08/28 01:25:18;;;;;;;0.30;0.30;;;12.30;99.90;;;;;;5014551;28;20328;-76
2021/08/28 01:28:01;;;;;;;0.10;0.10;;;12.20;99.90;;;;;;5030719;28;20017;-76
2021/08/28 01:30:27;;;;;;;0.10;0.10;;;12.20;99.90;;;;;;5032431;28;20025;-75
2021/08/28 01:32:53;;;;;;;0.10;0.10;;;12.20;99.90;;;;;;5032292;28;20029;-76
2021/08/28 01:35:21;;;;;;;0.20;0.20;;;12.30;99.90;;;;;;5032075;28;20025;-76
2021/08/28 01:37:48;;;;;;;0.17;0.17;;;12.40;99.90;;;;;;5031985;28;20113;-76
2021/08/28 01:40:15;;;;;;;0.10;0.10;;;12.50;99.90;;;;;;5032141;28;20025;-76
2021/08/28 01:42:44;;;;;;;0.45;0.45;;;12.50;99.90;;;;;;5014329;28;20029;-76
2021/08/28 01:45:13;;;;;;;0.10;0.10;;;12.40;99.90;;;;;;5014344;28;20044;-75
2021/08/28 01:47:41;;;;;;;0.20;0.20;;;12.30;99.90;;;;;;5032020;28;20515;-75
2021/08/28 01:50:08;;;;;;;0.10;0.10;;;12.30;99.90;;;;;;5032198;28;20018;-75
2021/08/28 01:52:34;;;;;;;0.10;0.10;;;12.30;99.90;;;;;;5014157;28;20544;-75
2021/08/28 01:55:00;;;;;;;0.20;0.20;;;12.30;99.90;;;;;;5014305;28;20105;-75
2021/08/28 01:57:27;;;;;;;0.20;0.20;;;12.40;99.90;;;;;;5031905;28;20477;-75
2021/08/28 01:59:53;;;;;;;0.10;0.10;;;12.40;99.90;;;;;;4997586;28;20026;-75
2021/08/28 02:02:19;;;;;;;0.10;0.10;;;12.40;99.90;;;;;;5031815;28;20113;-75
2021/08/28 02:04:44;;;;;;;0.10;0.10;;;12.50;99.90;;;;;;5031816;28;20100;-75
2021/08/28 02:07:30;;;;;;;0.10;0.10;;;12.60;99.90;;;;;;5032009;28;20765;-75
2021/08/28 02:10:02;;;;;;;0.20;0.20;;;12.60;99.90;;;;;;5014237;28;20108;-75
2021/08/28 02:12:44;;;;;;;0.10;0.10;;;12.50;99.90;;;;;;5031742;28;20045;-75
2021/08/28 02:15:32;;;;;;;0.52;0.52;;;12.50;99.90;;;;;;5031865;28;20033;-75
2021/08/28 02:18:01;;;;;;;0.10;0.10;;;12.50;99.90;;;;;;5013092;28;20056;-76
2021/08/28 02:20:33;;;;;;;0.10;0.10;;;12.60;99.90;;;;;;5031802;28;20069;-75
2021/08/28 02:23:06;;;;;;;0.10;0.10;;;12.60;99.90;;;;;;5031842;28;20071;-75
2021/08/28 02:25:53;;;;;;;0.10;0.10;;;12.50;99.90;;;;;;5014072;28;20099;-75
2021/08/28 02:28:32;;;;;;;0.10;0.10;;;12.20;99.90;;;;;;5013906;28;20056;-75
2021/08/28 02:31:00;;;;;;;0.10;0.10;;;12.30;99.90;;;;;;5031637;28;20017;-75
2021/08/28 02:33:26;;;;;;;0.40;0.40;;;12.40;99.90;;;;;;4997582;28;20026;-75
2021/08/28 02:35:55;;;;;;;0.08;0.08;;;12.40;99.90;;;;;;5031549;28;20025;-75
2021/08/28 02:38:22;;;;;;;1.73;1.55;;;12.40;99.90;;;;;;5031540;28;20025;-75
2021/08/28 02:40:50;;;;;;;0.20;0.20;;;12.30;99.90;;;;;;5017541;28;20029;-75
2021/08/28 02:43:16;;;;;;;0.10;0.10;;;12.30;99.90;;;;;;5034042;28;20442;-75
2021/08/28 02:45:43;;;;;;;0.10;0.10;;;12.40;99.90;;;;;;5035438;28;20021;-75
2021/08/28 02:48:10;;;;;;;0.17;0.17;;;12.40;99.90;;;;;;5035163;28;20045;-75
2021/08/28 02:50:38;;;;;;;0.10;0.10;;;12.40;99.90;;;;;;5035138;28;20079;-75
2021/08/28 02:53:06;;;;;;;0.10;0.10;;;12.40;99.90;;;;;;5035242;28;20075;-75
2021/08/28 02:55:33;;;;;;;0.10;0.10;;;12.40;99.90;;;;;;5035079;28;20030;-76
2021/08/28 02:58:00;;;;;;;0.22;0.22;;;12.40;99.90;;;;;;5034898;28;20032;-75
2021/08/28 03:00:26;;;;;;;1.75;0.85;;;12.30;99.90;;;;;;5034932;28;20034;-75
2021/08/28 03:02:53;;;;;;;0.20;0.20;;;12.10;99.90;;;;;;5017208;28;20188;-75
2021/08/28 03:05:19;;;;;;;0.47;0.47;;;12.10;99.90;;;;;;5034896;28;20025;-76
2021/08/28 03:07:45;;;;;;;1.65;1.55;;;12.00;99.90;;;;;;5000602;28;20032;-76
2021/08/28 03:10:13;;;;;;;0.13;0.13;;;12.00;99.90;;;;;;5017275;28;20508;-76
2021/08/28 03:12:39;;;;;;;0.10;0.10;;;12.00;99.90;;;;;;5034770;28;20029;-75
2021/08/28 03:15:07;;;;;;;0.20;0.20;;;11.90;99.90;;;;;;5016959;28;20030;-76
2021/08/28 03:17:34;;;;;;;0.20;0.20;;;11.90;99.90;;;;;;5033367;28;20032;-75
2021/08/28 03:20:01;;;;;;;0.10;0.10;;;11.90;99.90;;;;;;5034551;28;20029;-76
2021/08/28 03:22:27;;;;;;;0.68;0.68;;;11.90;99.90;;;;;;5034738;28;20102;-76
2021/08/28 03:24:54;;;;;;;0.50;0.50;;;11.90;99.90;;;;;;5034603;28;20029;-76
2021/08/28 03:27:21;;;;;;;0.10;0.10;;;11.90;99.90;;;;;;5016666;28;20022;-76
2021/08/28 03:29:49;;;;;;;0.15;0.15;;;11.90;99.90;;;;;;5016587;28;20508;-76
2021/08/28 03:32:19;;;;;;;0.30;0.30;;;11.80;99.90;;;;;;5016671;28;20021;-76
2021/08/28 03:34:45;;;;;;;0.55;0.55;;;11.80;99.90;;;;;;5016684;28;20032;-76
2021/08/28 03:37:13;;;;;;;1.80;1.67;;;11.70;99.90;;;;;;5016635;28;20052;-75
2021/08/28 03:39:39;;;;;;;0.65;0.52;;;11.70;99.90;;;;;;5016477;28;20259;-76
2021/08/28 03:42:07;;;;;;;0.60;0.30;;;11.60;99.90;;;;;;5034322;28;20021;-76
2021/08/28 03:44:37;;;;;;;0.22;0.20;;;11.60;99.90;;;;;;5034012;28;20117;-76
2021/08/28 03:47:03;;;;;;;0.10;0.10;;;11.50;99.90;;;;;;5034325;28;20017;-75
2021/08/28 03:49:29;;;;;;;0.10;0.10;;;11.60;99.90;;;;;;5032737;28;20083;-76
2021/08/28 03:51:55;;;;;;;0.10;0.10;;;11.80;99.90;;;;;;5034051;28;20014;-76
2021/08/28 03:54:20;;;;;;;0.22;0.22;;;11.90;99.90;;;;;;5033952;28;20052;-76
2021/08/28 03:56:46;;;;;;;1.15;0.73;;;12.00;99.90;;;;;;5032768;28;20029;-75
2021/08/28 03:59:12;;;;;;;0.70;0.63;;;11.90;99.90;;;;;;5032629;28;20022;-76
2021/08/28 04:01:37;;;;;;;0.75;0.75;;;12.00;99.90;;;;;;5084983;22;20376;-94
2021/08/28 04:04:03;;;;;;;1.15;0.85;;;12.00;99.90;;;;;;5041064;28;20043;-94
2021/08/28 04:06:29;;;;;;;0.10;0.10;;;11.90;99.90;;;;;;5041403;28;20016;-94
2021/08/28 04:08:54;;;;;;;0.65;0.57;;;12.00;99.90;;;;;;5041759;28;20020;-94
2021/08/28 04:11:20;;;;;;;0.10;0.10;;;12.00;99.90;;;;;;5054593;28;20020;-92
2021/08/28 04:13:46;;;;;;;0.70;0.40;;;12.10;99.90;;;;;;5061943;28;20056;-93
2021/08/28 04:16:11;;;;;;;0.10;0.10;;;12.10;99.90;;;;;;5061077;28;20374;-92
2021/08/28 04:18:37;;;;;;;0.10;0.10;;;12.00;99.90;;;;;;5060874;28;20032;-92
2021/08/28 04:21:03;;;;;;;0.10;0.10;;;12.10;99.90;;;;;;5062286;28;20131;-92
2021/08/28 04:23:29;;;;;;;0.10;0.10;;;12.10;99.90;;;;;;5061946;28;20123;-92
2021/08/28 04:25:54;;;;;;;0.32;0.32;;;12.30;99.90;;;;;;5062189;28;20028;-92
2021/08/28 04:28:20;;;;;;;0.10;0.10;;;12.20;99.90;;;;;;5062376;28;20431;-92
2021/08/28 04:30:45;;;;;;;0.30;0.30;;;12.20;99.90;;;;;;5062357;28;20020;-92
2021/08/28 04:33:11;;;;;;;0.20;0.20;;;12.20;99.90;;;;;;5062046;28;20053;-93
2021/08/28 04:35:37;;;;;;;0.65;0.22;;;12.10;99.90;;;;;;5063619;28;20567;-92
2021/08/28 04:38:03;;;;;;;0.30;0.30;;;12.20;99.90;;;;;;5063744;28;20043;-92
2021/08/28 04:40:29;;;;;;;2.45;1.63;;;12.00;99.90;;;;;;5063702;28;20399;-92
2021/08/28 04:42:54;;;;;;;0.90;0.90;;;11.90;99.90;;;;;;5062305;28;20042;-92
2021/08/28 04:45:20;;;;;;;0.20;0.20;;;11.80;99.90;;;;;;5062995;28;20035;-92
2021/08/28 04:47:46;;;;;;;0.68;0.68;;;11.80;99.90;;;;;;5061639;28;20050;-92
2021/08/28 04:50:12;;;;;;;1.67;1.23;;;11.80;99.90;;;;;;5061887;28;20024;-92
2021/08/28 04:52:38;;;;;;;0.15;0.15;;;11.60;99.90;;;;;;5061566;28;20020;-92
2021/08/28 04:55:46;;;;;;;;;;;;;;;;;;;;;
2021/08/28 04:59:39;;;;;;;;;;;;;;;;;;;;;
2021/08/28 05:02:05;;;;;;;0.10;0.10;;;11.70;99.90;;;;;;5046737;22;20049;-74
2021/08/28 05:04:31;;;;;;;0.80;0.68;;;11.80;99.90;;;;;;5034435;28;20032;-75
2021/08/28 05:06:57;;;;;;;0.43;0.43;;;11.80;99.90;;;;;;5034494;28;20546;-74
2021/08/28 05:09:23;;;;;;;0.15;0.15;;;11.90;99.90;;;;;;5034328;28;20017;-74
2021/08/28 05:11:49;;;;;;;0.52;0.45;;;12.10;99.90;;;;;;5052392;28;20031;-74
2021/08/28 05:14:15;;;;;;;0.10;0.10;;;11.80;99.90;;;;;;5017909;28;20025;-74
2021/08/28 05:16:40;;;;;;;0.10;0.10;;;11.80;99.90;;;;;;5052145;28;20048;-75
2021/08/28 05:19:06;;;;;;;0.88;0.77;;;12.00;99.90;;;;;;5052049;28;20469;-74
2021/08/28 05:21:32;;;;;;;0.10;0.10;;;12.00;99.90;;;;;;5052136;28;20028;-74
2021/08/28 05:23:58;;;;;;;0.10;0.10;;;12.00;99.90;;;;;;5052063;28;20131;-74
2021/08/28 05:26:24;;;;;;;0.15;0.15;;;12.10;99.90;;;;;;5034079;28;20025;-74
2021/08/28 05:28:49;;;;;;;0.35;0.20;;;12.10;99.90;;;;;;5034055;28;20037;-75
2021/08/28 05:31:15;;;;;;;0.10;0.10;;;12.10;99.90;;;;;;5034357;28;20021;-74
2021/08/28 05:33:41;;;;;;;0.10;0.10;;;12.10;99.90;;;;;;5051947;28;20025;-75
2021/08/28 05:36:07;;;;;;;1.10;1.10;;;12.20;99.90;;;;;;5040235;28;20021;-76
2021/08/28 05:38:33;;;;;;;0.20;0.20;;;12.20;99.90;;;;;;5033694;28;20029;-75
2021/08/28 05:40:59;;;;;;;0.20;0.20;;;12.20;99.90;;;;;;5035201;28;20025;-74
2021/08/28 05:43:24;;;;;;;0.82;0.50;;;12.20;99.90;;;;;;5044453;28;20508;-74
2021/08/28 05:45:50;;;;;;;0.08;0.08;;;12.30;99.90;;;;;;5056046;28;20110;-75
2021/08/28 05:48:16;;;;;;;1.30;0.82;;;12.30;99.90;;;;;;5040519;28;20021;-75
2021/08/28 05:50:42;;;;;;;0.45;0.45;;;12.20;99.90;;;;;;5051115;28;20033;-74
2021/08/28 05:53:09;;;;;;;0.82;0.82;;;12.10;99.90;;;;;;5064563;28;20017;-76
2021/08/28 05:55:34;;;;;;;0.20;0.20;;;12.20;99.90;;;;;;5071690;28;20029;-73
2021/08/28 05:58:00;;;;;;;0.75;0.75;;;12.30;99.90;;;;;;5053461;28;20025;-74
2021/08/28 06:00:26;;;;;;;0.10;0.10;;;12.30;99.90;;;;;;5053457;28;20028;-74
2021/08/28 06:02:51;;;;;;;3.92;0.57;;;12.30;99.90;;;;;;5071418;28;20048;-74
2021/08/28 06:05:17;;;;;;;0.10;0.10;;;12.30;99.90;;;;;;5053630;28;20475;-74
2021/08/28 06:07:43;;;;;;;0.10;0.10;;;12.30;99.90;;;;;;5053549;28;20048;-74
2021/08/28 06:10:09;;;;;;;0.08;0.08;;;12.30;99.90;;;;;;5041493;28;20225;-75
2021/08/28 06:12:36;;;;;;;0.80;0.75;;;12.40;99.90;;;;;;5034002;28;20041;-74
2021/08/28 06:15:05;;;;;;;0.20;0.20;;;12.40;99.90;;;;;;5055582;28;20484;-74
2021/08/28 06:17:32;;;;;;;0.28;0.28;;;12.40;99.90;;;;;;5037718;28;20028;-74
2021/08/28 06:19:57;;;;;;;0.10;0.10;;;12.40;99.90;;;;;;5037540;28;20544;-74
2021/08/28 06:22:23;;;;;;;0.10;0.10;;;12.40;99.90;;;;;;5045382;28;20060;-74
2021/08/28 06:24:49;;;;;;;0.40;0.40;;;12.30;99.90;;;;;;5055150;28;20033;-74
2021/08/28 06:27:14;;;;;;;0.10;0.10;;;12.20;99.90;;;;;;5037727;28;20028;-74
2021/08/28 06:29:40;;;;;;;0.10;0.10;;;12.20;99.90;;;;;;5037243;28;20032;-74
2021/08/28 06:32:06;;;;;;;0.10;0.10;;;12.10;99.90;;;;;;5055259;28;20021;-74
2021/08/28 06:34:32;;;;;;;0.10;0.10;;;12.20;99.90;;;;;;5020766;28;20115;-74
2021/08/28 06:36:58;;;;;;;0.10;0.10;;;12.40;99.90;;;;;;5037171;28;20082;-74
2021/08/28 06:39:23;;;;;;;0.20;0.20;;;12.40;99.90;;;;;;5055092;28;20401;-74
2021/08/28 06:41:49;;;;;;;0.10;0.10;;;12.30;99.90;;;;;;5037167;28;20119;-74
2021/08/28 06:44:16;;;;;;;0.35;0.22;;;12.20;99.90;;;;;;5055590;28;20044;-73
2021/08/28 06:46:42;;;;;;;0.00;0.00;;;12.20;99.90;;;;;;5054758;28;20396;-74
2021/08/28 06:49:08;;;;;;;0.10;0.10;;;12.20;99.90;;;;;;5036916;28;20017;-74
2021/08/28 06:51:34;;;;;;;0.10;0.10;;;12.10;99.90;;;;;;5058409;28;20054;-74
2021/08/28 06:54:00;;;;;;;0.00;0.00;;;12.10;99.90;;;;;;5041256;28;20021;-74
2021/08/28 06:56:26;;;;;;;0.08;0.08;;;12.10;99.90;;;;;;5054805;28;20491;-74
2021/08/28 06:58:52;;;;;;;0.10;0.10;;;12.30;99.90;;;;;;5036919;28;20075;-74
2021/08/28 07:01:17;;;;;;;0.10;0.10;;;12.20;99.90;;;;;;5036824;28;20431;-74
2021/08/28 07:03:43;;;;;;;0.00;0.00;;;12.30;99.90;;;;;;5037043;28;20116;-74
2021/08/28 07:06:09;;;;;;;0.10;0.10;;;12.40;99.90;;;;;;5035169;28;20032;-74
2021/08/28 07:08:34;;;;;;;0.10;0.10;;;12.50;99.90;;;;;;5054189;28;20029;-74
2021/08/28 07:11:00;;;;;;;0.10;0.10;;;12.60;99.90;;;;;;5020432;28;20067;-74
2021/08/28 07:13:27;;;;;;;0.10;0.10;;;12.70;99.90;;;;;;5020202;28;20025;-74
2021/08/28 07:15:53;;;;;;;0.10;0.10;;;12.90;99.90;;;;;;5020049;28;20499;-74
2021/08/28 07:18:19;;;;;;;0.10;0.10;;;12.80;99.90;;;;;;5036429;28;20103;-74
2021/08/28 07:20:44;;;;;;;0.10;0.10;;;12.90;99.90;;;;;;5036548;28;20032;-74
2021/08/28 07:23:11;;;;;;;0.10;0.10;;;12.90;99.90;;;;;;5054427;28;20029;-74
2021/08/28 07:25:37;;;;;;;0.50;0.50;;;13.00;99.90;;;;;;5054048;28;20024;-74
2021/08/28 07:28:09;;;;;;;0.00;0.00;;;12.80;99.90;;;;;;5019863;28;20163;-74
2021/08/28 07:30:35;;;;;;;;;;;12.80;99.90;;;;;;5036748;28;20289;-74
2021/08/28 07:33:01;;;;;;;0.00;0.00;;;12.90;99.90;;;;;;5036242;28;19908;-74
2021/08/28 07:35:28;;;;;;;0.32;0.32;;;13.00;99.90;;;;;;5053792;28;20498;-74
2021/08/28 07:37:55;;;;;;;0.10;0.10;;;13.00;99.90;;;;;;5053856;28;20029;-74
2021/08/28 07:40:23;;;;;;;0.20;0.20;;;12.90;99.90;;;;;;5036120;28;20033;-74
2021/08/28 07:42:56;;;;;;;0.10;0.10;;;13.00;99.90;;;;;;5036285;28;20476;-74
2021/08/28 07:45:23;;;;;;;0.13;0.13;;;13.00;99.90;;;;;;5019560;28;20025;-74
2021/08/28 07:47:50;;;;;;;0.10;0.10;;;12.90;99.90;;;;;;5053565;28;20021;-74
2021/08/28 07:50:16;;;;;;;0.10;0.10;;;12.90;99.90;;;;;;5053892;28;20480;-74
2021/08/28 07:52:45;;;;;;;0.20;0.20;;;12.90;99.90;;;;;;5053803;28;20025;-74
2021/08/28 07:55:12;;;;;;;0.10;0.10;;;12.80;99.90;;;;;;5053788;28;20096;-74
2021/08/28 07:57:39;;;;;;;0.10;0.10;;;12.80;99.90;;;;;;5035847;28;20109;-74
2021/08/28 08:00:07;;;;;;;0.20;0.20;;;12.60;99.90;;;;;;5053650;28;20040;-74
2021/08/28 08:02:33;;;;;;;0.10;0.10;;;12.60;99.90;;;;;;5035649;28;20377;-74
2021/08/28 08:04:58;;;;;;;0.00;0.00;;;12.80;99.90;;;;;;5035846;28;20035;-73
2021/08/28 08:07:24;;;;;;;0.20;0.20;;;12.90;99.90;;;;;;5035667;28;20067;-74
2021/08/28 08:09:50;;;;;;;0.10;0.10;;;12.90;99.90;;;;;;5053560;28;20028;-74
2021/08/28 08:12:16;;;;;;;0.10;0.10;;;13.00;99.90;;;;;;5053575;28;20033;-74
2021/08/28 08:14:41;;;;;;;0.10;0.10;;;13.00;99.90;;;;;;5019154;28;20021;-74
2021/08/28 08:17:07;;;;;;;0.10;0.10;;;13.20;99.90;;;;;;5018776;28;20029;-74
2021/08/28 08:19:33;;;;;;;0.10;0.10;;;13.30;99.90;;;;;;5035625;28;20489;-74
2021/08/28 08:21:59;;;;;;;0.10;0.10;;;13.50;99.90;;;;;;5053250;28;20427;-74
2021/08/28 08:24:24;;;;;;;0.10;0.10;;;13.50;99.90;;;;;;5053113;28;20035;-74
2021/08/28 08:26:50;;;;;;;0.10;0.10;;;13.60;99.90;;;;;;5018719;28;20045;-74
2021/08/28 08:29:16;;;;;;;0.10;0.10;;;13.70;99.90;;;;;;5035188;28;20021;-74
2021/08/28 08:31:42;;;;;;;0.10;0.10;;;13.80;99.90;;;;;;5035217;28;20027;-74
2021/08/28 08:34:08;;;;;;;0.10;0.10;;;13.70;99.90;;;;;;5035374;28;20100;-74
2021/08/28 08:36:33;;;;;;;0.20;0.20;;;13.60;99.90;;;;;;5034367;28;20021;-73
2021/08/28 08:38:59;;;;;;;0.20;0.20;;;13.70;99.90;;;;;;5052884;28;20053;-73
2021/08/28 08:41:25;;;;;;;0.10;0.10;;;13.60;99.90;;;;;;5018479;28;20489;-74
2021/08/28 08:43:56;;;;;;;0.13;0.13;;;13.80;99.90;;;;;;5052980;28;20025;-74
2021/08/28 08:46:23;;;;;;;0.10;0.10;;;13.70;99.90;;;;;;5052587;28;20531;-74
2021/08/28 08:48:50;;;;;;;0.10;0.10;;;13.80;99.90;;;;;;5052693;28;20476;-74
2021/08/28 08:51:20;;;;;;;0.10;0.10;;;13.60;99.90;;;;;;5034694;28;20049;-74
2021/08/28 08:53:47;;;;;;;0.10;0.10;;;13.70;99.90;;;;;;5052708;28;20029;-74
2021/08/28 08:56:14;;;;;;;0.50;0.50;;;13.70;99.90;;;;;;5034648;28;20055;-74
2021/08/28 08:58:40;;;;;;;0.40;0.40;;;14.00;99.90;;;;;;5052489;28;20028;-74
2021/08/28 09:01:07;;;;;;;0.30;0.28;;;14.10;99.90;;;;;;5034462;28;20047;-74
2021/08/28 09:03:34;;;;;;;0.20;0.20;;;14.30;99.90;;;;;;5034658;28;20040;-74
2021/08/28 09:06:00;;;;;;;0.10;0.10;;;14.30;99.90;;;;;;5052563;28;20029;-74
2021/08/28 09:08:25;;;;;;;0.22;0.22;;;14.60;99.90;;;;;;5052258;28;20327;-74
2021/08/28 09:10:51;;;;;;;0.30;0.30;;;14.60;99.90;;;;;;5052351;28;20025;-74
2021/08/28 09:13:18;;;;;;;0.20;0.20;;;14.60;99.90;;;;;;5034456;28;20082;-74
2021/08/28 09:15:45;;;;;;;0.10;0.10;;;14.50;99.90;;;;;;5052156;28;20021;-74
2021/08/28 09:18:12;;;;;;;0.13;0.13;;;14.60;99.90;;;;;;5034086;28;20025;-74
2021/08/28 09:20:38;;;;;;;0.10;0.10;;;14.70;99.90;;;;;;5052251;28;20381;-74
2021/08/28 09:23:11;;;;;;;0.10;0.10;;;14.70;99.90;;;;;;5052167;28;20067;-74
2021/08/28 09:25:38;;;;;;;0.10;0.10;;;14.50;99.90;;;;;;5034247;28;20489;-74
2021/08/28 09:28:05;;;;;;;0.20;0.20;;;14.40;99.90;;;;;;5051886;28;20017;-74
2021/08/28 09:30:39;;;;;;;0.50;0.50;;;14.10;99.90;;;;;;5052009;28;20032;-74
2021/08/28 09:33:08;;;;;;;0.20;0.20;;;13.80;99.90;;;;;;5034277;28;20096;-74
2021/08/28 09:35:39;;;;;;;0.10;0.10;;;14.00;99.90;;;;;;5051922;28;20502;-74
2021/08/28 09:38:13;;;;;;;0.20;0.20;;;14.10;99.90;;;;;;5051783;28;20052;-73
2021/08/28 09:40:41;;;;;;;0.10;0.10;;;13.90;99.90;;;;;;5051982;28;20021;-73
2021/08/28 09:43:18;;;;;;;0.10;0.10;;;13.90;99.90;;;;;;5051738;28;20488;-73
2021/08/28 09:45:46;;;;;;;0.20;0.20;;;14.00;99.90;;;;;;5033832;28;20484;-74
2021/08/28 09:48:13;;;;;;;0.30;0.30;;;14.00;99.90;;;;;;5051693;28;20433;-74
2021/08/28 09:50:52;;;;;;;0.10;0.10;;;14.00;99.90;;;;;;5051745;28;20017;-74
2021/08/28 09:53:21;;;;;;;0.73;0.65;;;14.10;99.90;;;;;;5033933;28;20094;-74
2021/08/28 09:55:54;;;;;;;0.40;0.28;;;14.00;99.90;;;;;;5033728;28;20488;-74
2021/08/28 09:58:24;;;;;;;0.10;0.10;;;14.00;99.90;;;;;;5033711;28;20033;-74
2021/08/28 10:00:50;;;;;;;0.17;0.17;;;13.90;99.90;;;;;;5065518;22;20121;-75
2021/08/28 10:03:18;;;;;;;0.55;0.55;;;13.80;99.90;;;;;;5032371;28;20124;-75
2021/08/28 10:05:47;;;;;;;0.90;0.68;;;13.70;99.90;;;;;;5051416;28;20021;-75
2021/08/28 10:08:15;;;;;;;0.20;0.20;;;13.20;99.90;;;;;;5051560;28;20021;-75
2021/08/28 10:10:41;;;;;;;0.10;0.10;;;12.90;99.90;;;;;;5052110;28;20029;-76
2021/08/28 10:13:08;;;;;;;0.20;0.20;;;13.10;99.90;;;;;;5051676;28;20050;-76
2021/08/28 10:15:35;;;;;;;0.20;0.20;;;13.20;99.90;;;;;;5052310;28;20037;-76
2021/08/28 10:18:04;;;;;;;0.20;0.20;;;12.90;99.90;;;;;;5051458;28;20104;-76
2021/08/28 10:20:31;;;;;;;0.80;0.80;;;12.50;99.90;;;;;;5033758;28;20025;-76
2021/08/28 10:23:02;;;;;;;0.60;0.57;;;12.40;99.90;;;;;;5033688;28;20403;-75
2021/08/28 10:25:29;;;;;;;0.77;0.77;;;12.20;99.90;;;;;;5051642;28;20546;-76
2021/08/28 10:27:56;;;;;;;1.08;1.05;;;12.20;99.90;;;;;;5033776;28;20026;-76
2021/08/28 10:30:24;;;;;;;0.52;0.35;;;12.20;99.90;;;;;;5033653;28;20025;-76
2021/08/28 10:32:51;;;;;;;0.88;0.68;;;12.30;99.90;;;;;;5051413;28;20472;-76
2021/08/28 10:35:19;;;;;;;0.20;0.20;;;12.30;99.90;;;;;;5051453;28;20021;-76
2021/08/28 10:37:45;;;;;;;0.00;0.00;;;12.30;99.90;;;;;;5051453;28;20029;-76
2021/08/28 10:40:19;;;;;;;1.17;0.68;;;12.30;99.90;;;;;;5051620;28;20365;-76
2021/08/28 10:42:46;;;;;;;0.40;0.40;;;12.50;99.90;;;;;;5051449;28;20415;-76
2021/08/28 10:45:12;;;;;;;0.20;0.20;;;12.50;99.90;;;;;;5051290;28;20457;-76
2021/08/28 10:47:43;;;;;;;0.32;0.32;;;12.40;99.90;;;;;;5051503;28;20033;-76
2021/08/28 10:50:11;;;;;;;1.80;0.90;;;12.40;99.90;;;;;;5051656;28;20025;-76
2021/08/28 10:52:39;;;;;;;1.33;0.90;;;12.40;99.90;;;;;;5051504;28;20032;-76
2021/08/28 10:55:09;;;;;;;0.63;0.45;;;12.70;99.90;;;;;;5033612;28;20029;-76
2021/08/28 10:57:35;;;;;;;0.45;0.45;;;12.70;99.90;;;;;;5051253;28;20385;-76
2021/08/28 11:00:21;;;;;;;0.20;0.20;;;12.90;99.90;;;;;;5053664;28;20029;-76
2021/08/28 11:03:03;;;;;;;0.17;0.17;;;12.60;99.90;;;;;;5054926;28;20040;-76
2021/08/28 11:05:32;;;;;;;0.43;0.40;;;12.50;99.90;;;;;;5036978;28;20403;-76
2021/08/28 11:08:17;;;;;;;0.20;0.20;;;12.50;99.90;;;;;;5036981;28;20021;-76
2021/08/28 11:11:03;;;;;;;0.52;0.20;;;12.40;99.90;;;;;;5054827;28;20029;-76
2021/08/28 11:13:56;;;;;;;0.30;0.30;;;12.50;99.90;;;;;;5036725;28;20079;-76
2021/08/28 11:16:43;;;;;;;0.43;0.38;;;12.70;99.90;;;;;;5046038;28;20091;-76
2021/08/28 11:19:33;;;;;;;0.77;0.50;;;12.90;99.90;;;;;;5036806;28;20028;-76
2021/08/28 11:21:59;;;;;;;0.55;0.55;;;12.90;99.90;;;;;;5043774;28;20053;-76
2021/08/28 11:24:27;;;;;;;0.15;0.15;;;12.90;99.90;;;;;;5054280;28;20033;-75
2021/08/28 11:26:58;;;;;;;0.52;0.52;;;13.00;99.90;;;;;;5054513;28;20051;-76
2021/08/28 11:29:28;;;;;;;0.30;0.30;;;13.00;99.90;;;;;;5054359;28;20021;-76
2021/08/28 11:32:14;;;;;;;0.40;0.40;;;12.80;99.90;;;;;;5054582;28;20496;-76
2021/08/28 11:34:47;;;;;;;0.10;0.10;;;12.80;99.90;;;;;;5054335;28;20025;-76
2021/08/28 11:37:34;;;;;;;0.10;0.10;;;12.90;99.90;;;;;;5054391;28;20035;-76
2021/08/28 11:40:21;;;;;;;0.17;0.17;;;13.10;99.90;;;;;;5054228;28;20033;-76
2021/08/28 11:42:47;;;;;;;0.10;0.10;;;13.00;99.90;;;;;;5054248;28;20097;-76
2021/08/28 11:45:13;;;;;;;0.15;0.15;;;13.00;99.90;;;;;;5054158;28;20036;-75
2021/08/28 11:47:39;;;;;;;0.52;0.40;;;12.70;99.90;;;;;;5036259;28;20021;-76
2021/08/28 11:50:06;;;;;;;0.10;0.10;;;12.80;99.90;;;;;;5036293;28;20036;-76
2021/08/28 11:52:36;;;;;;;0.20;0.20;;;12.60;99.90;;;;;;5054195;28;20024;-76
2021/08/28 11:55:09;;;;;;;0.10;0.10;;;12.70;99.90;;;;;;5054005;28;20032;-76
2021/08/28 11:57:36;;;;;;;0.88;0.55;;;12.80;99.90;;;;;;5053956;28;20040;-76
2021/08/28 12:00:06;;;;;;;0.32;0.20;;;12.70;99.90;;;;;;5053848;28;20021;-76
2021/08/28 12:02:32;;;;;;;0.43;0.43;;;12.60;99.90;;;;;;5035979;28;20488;-75
2021/08/28 12:05:12;;;;;;;0.90;0.60;;;12.80;99.90;;;;;;5035917;28;20024;-76
2021/08/28 12:07:39;;;;;;;1.08;0.52;;;12.80;99.90;;;;;;5053824;28;20449;-76
2021/08/28 12:10:06;;;;;;;0.10;0.10;;;12.70;99.90;;;;;;5035280;28;20025;-74
2021/08/28 12:12:31;;;;;;;0.20;0.20;;;12.70;99.90;;;;;;5035435;28;20048;-74
2021/08/28 12:15:05;;;;;;;0.20;0.20;;;12.80;99.90;;;;;;5035734;28;20060;-74
2021/08/28 12:17:31;;;;;;;0.35;0.30;;;12.90;99.90;;;;;;5053565;28;20051;-74
2021/08/28 12:19:59;;;;;;;0.60;0.60;;;12.80;99.90;;;;;;5053635;28;20032;-74
2021/08/28 12:22:25;;;;;;;0.20;0.20;;;12.70;99.90;;;;;;5053457;28;20031;-75
2021/08/28 12:24:51;;;;;;;0.45;0.40;;;12.80;99.90;;;;;;5053848;28;20520;-75
2021/08/28 12:27:17;;;;;;;0.45;0.45;;;12.70;99.90;;;;;;5053399;28;20021;-75
2021/08/28 12:29:44;;;;;;;0.93;0.28;;;12.60;99.90;;;;;;5053247;28;20092;-75
2021/08/28 12:32:21;;;;;;;0.10;0.10;;;12.50;99.90;;;;;;5053282;28;20477;-75
2021/08/28 12:34:53;;;;;;;3.63;0.47;;;12.50;99.90;;;;;;5035225;28;20025;-75
2021/08/28 12:37:20;;;;;;;0.30;0.30;;;12.40;99.90;;;;;;5035446;28;20104;-75
2021/08/28 12:39:49;;;;;;;0.30;0.30;;;12.60;99.90;;;;;;5053058;28;20029;-75
2021/08/28 12:42:17;;;;;;;0.65;0.57;;;12.50;99.90;;;;;;5053045;28;20117;-75
2021/08/28 12:44:47;;;;;;;0.10;0.10;;;12.60;99.90;;;;;;5018603;28;20111;-75
2021/08/28 12:47:15;;;;;;;0.10;0.10;;;12.70;99.90;;;;;;5053160;28;20045;-74
2021/08/28 12:49:42;;;;;;;0.35;0.35;;;12.80;99.90;;;;;;5018466;28;20025;-75
2021/08/28 12:52:12;;;;;;;0.20;0.20;;;12.90;99.90;;;;;;5035191;28;20025;-75
2021/08/28 12:54:49;;;;;;;0.15;0.15;;;12.90;99.90;;;;;;5034946;28;20067;-75
2021/08/28 12:57:29;;;;;;;0.20;0.20;;;13.10;99.90;;;;;;5034923;28;20053;-75